createdAt,value
2019-05-07T00:00:41.880Z,37.10
2019-05-07T00:03:12.377Z,37.00
2019-05-07T00:05:47.011Z,37.10
2019-05-07T00:08:18.023Z,37.00
2019-05-07T00:10:50.201Z,37.10
2019-05-07T00:13:22.953Z,37.10
2019-05-07T00:16:56.573Z,37.10
2019-05-07T00:19:32.442Z,37.10
2019-05-07T00:26:14.560Z,37.10
2019-05-07T00:29:45.137Z,37.10
2019-05-07T00:33:10.125Z,37.20
2019-05-07T00:35:57.327Z,37.20
2019-05-07T00:38:28.561Z,37.20
2019-05-07T00:41:35.644Z,37.20
2019-05-07T00:44:09.158Z,37.20
2019-05-07T00:46:43.501Z,37.10
2019-05-07T00:49:25.731Z,37.20
2019-05-07T00:51:57.987Z,37.20
2019-05-07T00:54:34.463Z,37.10
2019-05-07T00:57:05.657Z,37.10
2019-05-07T00:59:36.931Z,37.20
2019-05-07T01:02:07.927Z,37.20
2019-05-07T01:04:46.219Z,37.10
2019-05-07T01:07:22.699Z,37.10
2019-05-07T01:09:55.150Z,37.10
2019-05-07T01:13:20.445Z,37.20
2019-05-07T01:15:56.858Z,37.10
2019-05-07T01:18:32.427Z,37.20
2019-05-07T01:21:33.631Z,37.20
2019-05-07T01:24:07.553Z,37.10
2019-05-07T01:26:42.553Z,37.10
2019-05-07T01:29:16.709Z,37.40
2019-05-07T01:31:56.349Z,37.10
2019-05-07T01:34:53.861Z,37.10
2019-05-07T01:37:25.702Z,37.10
2019-05-07T01:39:55.954Z,37.20
2019-05-07T01:42:28.577Z,37.10
2019-05-07T01:45:02.331Z,37.10
2019-05-07T01:47:34.734Z,37.10
2019-05-07T01:50:05.159Z,37.10
2019-05-07T01:52:36.322Z,37.10
2019-05-07T01:55:12.959Z,37.60
2019-05-07T01:57:44.037Z,37.80
2019-05-07T02:00:17.430Z,37.10
2019-05-07T02:02:53.289Z,37.80
2019-05-07T02:05:52.772Z,37.20
2019-05-07T02:09:02.310Z,37.10
2019-05-07T02:16:01.222Z,37.10
2019-05-07T02:19:02.181Z,37.10
2019-05-07T02:21:46.895Z,37.10
2019-05-07T02:24:23.598Z,37.20
2019-05-07T02:26:54.582Z,37.10
2019-05-07T02:29:25.079Z,37.30
2019-05-07T02:31:57.739Z,37.20
2019-05-07T02:34:28.551Z,37.20
2019-05-07T02:37:03.811Z,37.20
2019-05-07T02:39:44.299Z,37.20
2019-05-07T02:42:16.066Z,37.20
2019-05-07T02:45:13.162Z,37.20
2019-05-07T02:47:43.794Z,37.20
2019-05-07T02:50:25.348Z,37.20
2019-05-07T02:53:18.028Z,37.40
2019-05-07T02:55:56.830Z,37.30
2019-05-07T02:58:32.875Z,37.30
2019-05-07T03:01:05.290Z,37.30
2019-05-07T03:03:45.003Z,37.30
2019-05-07T03:06:23.671Z,37.30
2019-05-07T03:08:57.096Z,37.30
2019-05-07T03:11:34.468Z,37.30
2019-05-07T03:14:05.687Z,37.30
2019-05-07T03:16:44.010Z,37.30
2019-05-07T03:19:14.813Z,37.30
2019-05-07T03:21:55.045Z,37.30
2019-05-07T03:25:03.329Z,37.30
2019-05-07T03:27:34.396Z,37.20
2019-05-07T03:30:16.821Z,37.20
2019-05-07T03:32:56.443Z,37.20
2019-05-07T03:35:37.535Z,37.30
2019-05-07T03:38:13.228Z,36.50
2019-05-07T03:44:06.545Z,37.40
2019-05-07T03:46:56.758Z,37.40
2019-05-07T03:49:29.063Z,37.40
2019-05-07T03:51:59.734Z,37.40
2019-05-07T03:54:33.754Z,37.30
2019-05-07T03:57:10.627Z,37.30
2019-05-07T03:59:39.666Z,37.30
2019-05-07T04:02:17.515Z,37.20
2019-05-07T04:04:52.924Z,37.30
2019-05-07T04:07:25.235Z,37.30
2019-05-07T04:09:59.622Z,37.10
2019-05-07T04:12:34.013Z,37.20
2019-05-07T04:15:06.486Z,37.20
2019-05-07T04:17:37.338Z,37.10
2019-05-07T04:20:24.090Z,37.10
2019-05-07T04:23:00.148Z,37.10
2019-05-07T04:25:45.931Z,37.20
2019-05-07T04:28:28.012Z,37.20
2019-05-07T04:31:03.617Z,36.70
2019-05-07T04:33:43.849Z,37.10
2019-05-07T04:36:23.722Z,37.10
2019-05-07T04:38:55.033Z,37.20
2019-05-07T04:41:26.741Z,37.10
2019-05-07T04:43:59.520Z,37.20
2019-05-07T04:46:33.705Z,37.10
2019-05-07T04:49:13.483Z,37.10
2019-05-07T04:52:06.648Z,37.10
2019-05-07T04:54:37.473Z,37.10
2019-05-07T04:57:25.901Z,37.10
2019-05-07T05:00:03.327Z,37.10
2019-05-07T05:02:53.198Z,37.10
2019-05-07T05:05:25.425Z,37.10
2019-05-07T05:07:59.378Z,37.10
2019-05-07T05:10:34.062Z,37.10
2019-05-07T05:13:04.508Z,37.10
2019-05-07T05:15:35.610Z,37.10
2019-05-07T05:18:15.266Z,37.10
2019-05-07T05:21:14.278Z,37.10
2019-05-07T05:23:58.426Z,37.10
2019-05-07T05:26:34.107Z,37.10
2019-05-07T05:29:05.572Z,37.10
2019-05-07T05:31:38.057Z,37.10
2019-05-07T05:34:08.873Z,37.30
2019-05-07T05:36:39.782Z,37.20
2019-05-07T05:39:12.925Z,37.20
2019-05-07T05:41:51.799Z,37.20
2019-05-07T05:44:28.062Z,37.20
2019-05-07T05:46:58.639Z,37.20
2019-05-07T05:49:32.182Z,37.20
2019-05-07T05:52:14.470Z,37.30
2019-05-07T05:54:53.288Z,37.30
2019-05-07T05:57:44.650Z,37.40
2019-05-07T06:00:37.935Z,37.30
2019-05-07T06:03:28.724Z,37.30
2019-05-07T06:06:06.853Z,37.30
2019-05-07T06:09:05.634Z,38.10
2019-05-07T06:12:05.357Z,37.30
2019-05-07T06:14:56.672Z,38.00
2019-05-07T06:17:45.801Z,37.40
2019-05-07T06:20:45.555Z,37.30
2019-05-07T06:23:26.520Z,37.40
2019-05-07T06:25:59.796Z,37.50
2019-05-07T06:28:33.617Z,37.30
2019-05-07T06:31:09.170Z,37.20
2019-05-07T06:33:43.103Z,37.30
2019-05-07T06:36:19.345Z,37.40
2019-05-07T06:39:04.809Z,37.30
2019-05-07T06:41:52.966Z,37.40
2019-05-07T06:44:25.341Z,37.30
2019-05-07T06:46:58.794Z,37.30
2019-05-07T06:49:29.569Z,37.70
2019-05-07T06:51:59.849Z,38.30
2019-05-07T06:54:33.419Z,37.40
2019-05-07T06:57:04.293Z,37.60
2019-05-07T06:59:42.341Z,37.80
2019-05-07T07:02:32.726Z,37.80
2019-05-07T07:05:25.920Z,37.80
2019-05-07T07:08:02.280Z,37.70
2019-05-07T07:10:52.237Z,37.50
2019-05-07T07:13:24.324Z,37.40
2019-05-07T07:15:55.442Z,37.40
2019-05-07T07:18:27.062Z,37.20
2019-05-07T07:20:57.769Z,37.10
2019-05-07T07:23:32.660Z,37.00
2019-05-07T07:26:06.061Z,37.00
2019-05-07T07:28:36.545Z,37.20
2019-05-07T07:31:18.477Z,37.10
2019-05-07T07:33:50.210Z,38.70
2019-05-07T07:36:22.651Z,39.50
2019-05-07T07:38:57.822Z,39.80
2019-05-07T07:41:36.989Z,40.00
2019-05-07T07:44:07.302Z,39.90
2019-05-07T07:46:42.558Z,40.50
2019-05-07T07:49:15.066Z,40.60
2019-05-07T07:51:46.029Z,40.90
2019-05-07T07:54:19.344Z,41.00
2019-05-07T07:57:18.181Z,40.90
2019-05-07T08:00:13.345Z,40.80
2019-05-07T08:02:53.198Z,40.40
2019-05-07T08:05:24.019Z,40.20
2019-05-07T08:07:57.139Z,40.20
2019-05-07T08:10:27.941Z,40.10
2019-05-07T08:13:01.948Z,40.10
2019-05-07T08:15:37.143Z,39.60
2019-05-07T08:18:11.992Z,39.90
2019-05-07T08:20:51.991Z,39.80
2019-05-07T08:23:22.842Z,39.80
2019-05-07T08:25:54.135Z,39.90
2019-05-07T08:28:31.988Z,40.00
2019-05-07T08:31:22.621Z,40.00
2019-05-07T08:34:14.215Z,39.80
2019-05-07T08:36:46.255Z,39.80
2019-05-07T08:39:22.367Z,39.90
2019-05-07T08:41:57.387Z,39.80
2019-05-07T08:44:43.062Z,39.90
2019-05-07T08:47:36.838Z,39.70
2019-05-07T08:50:08.577Z,39.40
2019-05-07T08:52:42.058Z,39.10
2019-05-07T08:55:12.898Z,39.00
2019-05-07T08:57:45.869Z,38.80
2019-05-07T09:00:18.278Z,38.60
2019-05-07T09:02:52.430Z,38.30
2019-05-07T09:05:23.057Z,37.90
2019-05-07T09:07:55.183Z,37.60
2019-05-07T09:10:35.306Z,36.80
2019-05-07T09:13:06.098Z,37.00
2019-05-07T09:15:36.541Z,37.40
2019-05-07T09:18:07.452Z,36.20
2019-05-07T09:20:37.763Z,36.00
2019-05-07T09:23:08.814Z,36.20
2019-05-07T09:25:47.824Z,36.50
2019-05-07T09:28:30.142Z,36.40
2019-05-07T09:31:16.057Z,36.40
2019-05-07T09:33:52.218Z,36.50
2019-05-07T09:36:29.073Z,36.60
2019-05-07T09:39:02.686Z,36.70
2019-05-07T09:41:33.166Z,36.80
2019-05-07T09:44:03.518Z,36.90
2019-05-07T09:46:34.070Z,36.90
2019-05-07T09:49:12.470Z,37.00
2019-05-07T09:51:47.804Z,37.00
2019-05-07T09:54:18.761Z,37.10
2019-05-07T09:56:52.593Z,37.10
2019-05-07T09:59:27.778Z,37.20
2019-05-07T10:02:01.814Z,37.30
2019-05-07T10:04:35.418Z,37.20
2019-05-07T10:07:06.029Z,37.20
2019-05-07T10:09:37.135Z,37.30
2019-05-07T10:12:26.039Z,37.40
2019-05-07T10:14:59.658Z,37.60
2019-05-07T10:17:46.171Z,37.60
2019-05-07T10:20:22.503Z,37.60
2019-05-07T10:22:54.760Z,37.50
2019-05-07T10:25:27.594Z,37.50
2019-05-07T10:28:02.947Z,37.70
2019-05-07T10:30:34.878Z,37.70
2019-05-07T10:33:06.000Z,37.70
2019-05-07T10:35:37.797Z,37.60
2019-05-07T10:38:12.482Z,37.70
2019-05-07T10:40:45.599Z,37.60
2019-05-07T10:43:24.366Z,37.60
2019-05-07T10:46:20.447Z,37.70
2019-05-07T10:49:02.016Z,37.80
2019-05-07T10:51:36.865Z,36.00
2019-05-07T10:54:08.620Z,33.90
2019-05-07T10:56:41.802Z,33.30
2019-05-07T10:59:15.522Z,32.70
2019-05-07T11:01:52.390Z,33.10
2019-05-07T11:04:24.606Z,32.80
2019-05-07T11:06:54.911Z,32.30
2019-05-07T11:09:29.086Z,32.30
2019-05-07T11:12:02.616Z,32.10
2019-05-07T11:14:35.813Z,32.60
2019-05-07T11:17:34.401Z,32.70
2019-05-07T11:20:08.445Z,32.60
2019-05-07T11:22:39.432Z,32.20
2019-05-07T11:25:18.381Z,32.40
2019-05-07T11:27:52.501Z,32.20
2019-05-07T11:30:27.616Z,32.10
2019-05-07T11:33:04.590Z,32.10
2019-05-07T11:35:39.106Z,31.70
2019-05-07T11:38:18.637Z,31.90
2019-05-07T11:40:43.550Z,32.00
2019-05-07T11:43:36.878Z,31.70
2019-05-07T11:46:16.769Z,32.20
2019-05-07T11:49:11.563Z,31.90
2019-05-07T11:51:49.190Z,31.80
2019-05-07T11:54:21.351Z,31.90
2019-05-07T11:56:55.417Z,31.70
2019-05-07T11:59:25.706Z,32.20
2019-05-07T12:02:02.740Z,32.60
2019-05-07T12:04:33.995Z,32.70
2019-05-07T12:07:05.643Z,32.90
2019-05-07T12:09:39.546Z,32.90
2019-05-07T12:12:16.306Z,32.80
2019-05-07T12:14:51.936Z,32.20
2019-05-07T12:17:25.396Z,32.50
2019-05-07T12:19:59.442Z,32.40
2019-05-07T12:22:48.767Z,32.20
2019-05-07T12:25:24.651Z,32.10
2019-05-07T12:27:55.760Z,31.90
2019-05-07T12:30:46.566Z,31.80
2019-05-07T12:33:54.583Z,32.70
2019-05-07T12:36:32.080Z,32.60
2019-05-07T12:39:06.375Z,33.30
2019-05-07T12:41:41.741Z,33.60
2019-05-07T12:44:15.682Z,33.90
2019-05-07T12:46:49.333Z,33.90
2019-05-07T12:49:22.211Z,33.90
2019-05-07T12:52:15.149Z,33.90
2019-05-07T12:54:57.475Z,34.00
2019-05-07T12:57:33.759Z,34.30
2019-05-07T13:00:24.359Z,34.40
2019-05-07T13:03:25.481Z,34.50
2019-05-07T13:06:02.538Z,34.70
2019-05-07T13:08:41.983Z,34.80
2019-05-07T13:11:15.403Z,34.70
2019-05-07T13:13:49.866Z,34.60
2019-05-07T13:16:22.065Z,34.60
2019-05-07T13:18:56.561Z,34.70
2019-05-07T13:21:27.863Z,35.00
2019-05-07T13:24:02.743Z,34.70
2019-05-07T13:26:34.043Z,34.50
2019-05-07T13:29:12.917Z,34.40
2019-05-07T13:31:45.372Z,34.40
2019-05-07T13:34:16.454Z,34.30
2019-05-07T13:36:54.591Z,35.00
2019-05-07T13:39:43.929Z,35.00
2019-05-07T13:42:34.892Z,35.20
2019-05-07T13:45:24.473Z,35.40
2019-05-07T13:48:02.836Z,35.00
2019-05-07T13:50:35.105Z,34.90
2019-05-07T13:53:06.085Z,34.80
2019-05-07T13:55:36.787Z,34.70
2019-05-07T13:58:07.756Z,34.60
2019-05-07T14:00:44.811Z,35.60
2019-05-07T14:03:15.989Z,35.80
2019-05-07T14:05:51.591Z,36.00
2019-05-07T14:08:25.321Z,36.00
2019-05-07T14:10:58.429Z,36.20
2019-05-07T14:13:29.534Z,36.30
2019-05-07T14:16:07.407Z,35.90
2019-05-07T14:18:42.799Z,35.80
2019-05-07T14:21:13.141Z,35.40
2019-05-07T14:23:46.318Z,35.40
2019-05-07T14:26:17.589Z,35.70
2019-05-07T14:28:54.756Z,35.70
2019-05-07T14:31:25.906Z,35.50
2019-05-07T14:34:18.858Z,35.80
2019-05-07T14:37:04.840Z,35.70
2019-05-07T14:39:38.334Z,35.60
2019-05-07T14:42:13.260Z,35.70
2019-05-07T14:44:52.776Z,35.80
2019-05-07T14:47:24.678Z,35.90
2019-05-07T14:49:55.834Z,35.90
2019-05-07T14:52:32.886Z,35.90
2019-05-07T14:55:07.451Z,35.80
2019-05-07T14:57:38.591Z,35.80
2019-05-07T15:00:13.287Z,35.70
2019-05-07T15:02:44.005Z,35.70
2019-05-07T15:05:17.925Z,35.70
2019-05-07T15:07:48.283Z,35.60
2019-05-07T15:10:22.234Z,35.50
2019-05-07T15:12:57.680Z,35.40
2019-05-07T15:15:36.323Z,35.30
2019-05-07T15:18:15.696Z,35.40
2019-05-07T15:20:47.826Z,35.30
2019-05-07T15:23:43.301Z,35.50
2019-05-07T15:26:19.110Z,35.70
2019-05-07T15:29:08.759Z,35.60
2019-05-07T15:32:03.423Z,35.50
2019-05-07T15:34:33.995Z,35.40
2019-05-07T15:37:05.655Z,35.20
2019-05-07T15:39:39.538Z,35.20
2019-05-07T15:42:10.214Z,35.20
2019-05-07T15:44:43.492Z,35.10
2019-05-07T15:47:22.155Z,35.10
2019-05-07T15:49:52.826Z,34.90
2019-05-07T15:52:41.579Z,35.50
2019-05-07T15:55:13.774Z,34.80
2019-05-07T15:57:46.855Z,34.50
2019-05-07T16:00:22.162Z,34.40
2019-05-07T16:03:04.404Z,34.30
2019-05-07T16:05:42.872Z,34.20
2019-05-07T16:08:15.016Z,34.30
2019-05-07T16:10:48.587Z,34.40
2019-05-07T16:13:23.916Z,34.30
2019-05-07T16:15:54.887Z,34.20
2019-05-07T16:18:34.395Z,34.20
2019-05-07T16:21:05.995Z,34.20
2019-05-07T16:23:40.177Z,34.20
2019-05-07T16:26:12.913Z,34.10
2019-05-07T16:28:54.218Z,34.10
2019-05-07T16:31:25.722Z,34.10
2019-05-07T16:34:04.214Z,34.20
2019-05-07T16:36:35.740Z,34.20
2019-05-07T16:39:12.003Z,34.20
2019-05-07T16:41:43.811Z,34.20
2019-05-07T16:44:14.610Z,34.20
2019-05-07T16:46:45.871Z,34.20
2019-05-07T16:49:26.217Z,34.20
2019-05-07T16:51:57.369Z,34.30
2019-05-07T16:54:28.823Z,34.10
2019-05-07T16:57:19.009Z,34.00
2019-05-07T16:59:55.839Z,34.00
2019-05-07T17:02:32.139Z,33.90
2019-05-07T17:05:12.611Z,34.10
2019-05-07T17:07:52.053Z,34.00
2019-05-07T17:10:26.738Z,34.00
2019-05-07T17:12:57.724Z,34.10
2019-05-07T17:15:31.465Z,34.00
2019-05-07T17:18:06.249Z,34.00
2019-05-07T17:20:38.375Z,34.00
2019-05-07T17:23:09.120Z,34.10
2019-05-07T17:25:42.777Z,34.20
2019-05-07T17:28:13.913Z,34.10
2019-05-07T17:30:47.118Z,34.10
2019-05-07T17:33:18.534Z,34.10
2019-05-07T17:35:51.588Z,34.10
2019-05-07T17:38:23.223Z,34.10
2019-05-07T17:41:09.685Z,34.20
2019-05-07T17:43:32.347Z,34.20
2019-05-07T17:46:06.621Z,34.20
2019-05-07T17:48:38.132Z,35.00
2019-05-07T17:51:34.745Z,34.20
2019-05-07T17:54:09.166Z,34.30
2019-05-07T17:56:42.082Z,34.30
2019-05-07T17:59:13.104Z,34.40
2019-05-07T18:02:03.589Z,34.30
2019-05-07T18:04:48.478Z,34.40
2019-05-07T18:07:12.009Z,34.40
2019-05-07T18:09:45.018Z,34.40
2019-05-07T18:12:23.789Z,34.40
2019-05-07T18:14:56.543Z,34.50
2019-05-07T18:17:35.830Z,34.50
2019-05-07T18:20:12.842Z,34.60
2019-05-07T18:22:46.084Z,34.60
2019-05-07T18:25:17.471Z,34.60
2019-05-07T18:27:48.166Z,34.60
2019-05-07T18:30:19.513Z,34.60
2019-05-07T18:32:56.448Z,34.70
2019-05-07T18:35:32.199Z,34.70
2019-05-07T18:38:08.669Z,34.70
2019-05-07T18:40:42.726Z,34.70
2019-05-07T18:43:13.474Z,34.70
2019-05-07T18:45:44.743Z,34.70
2019-05-07T18:48:16.528Z,34.70
2019-05-07T18:50:52.155Z,34.80
2019-05-07T18:53:23.395Z,34.70
2019-05-07T18:55:54.158Z,34.80
2019-05-07T18:58:29.091Z,34.70
2019-05-07T19:01:05.843Z,34.90
2019-05-07T19:03:35.842Z,34.80
2019-05-07T19:06:07.151Z,34.90
2019-05-07T19:08:38.554Z,34.90
2019-05-07T19:11:12.315Z,34.90
2019-05-07T19:13:43.919Z,34.80
2019-05-07T19:16:18.060Z,34.80
2019-05-07T19:18:49.267Z,34.80
2019-05-07T19:21:19.728Z,34.80
2019-05-07T19:23:52.883Z,34.90
2019-05-07T19:26:24.126Z,34.90
2019-05-07T19:28:55.124Z,34.90
2019-05-07T19:31:29.288Z,34.90
2019-05-07T19:34:09.258Z,34.20
2019-05-07T19:36:42.614Z,34.90
2019-05-07T19:39:13.780Z,34.80
2019-05-07T19:41:52.516Z,34.90
2019-05-07T19:44:23.645Z,34.90
2019-05-07T19:46:54.050Z,35.20
2019-05-07T19:49:27.466Z,35.20
2019-05-07T19:51:58.183Z,35.50
2019-05-07T19:54:29.381Z,35.50
2019-05-07T19:57:02.869Z,35.60
2019-05-07T19:59:38.350Z,35.70
2019-05-07T20:02:12.738Z,35.80
2019-05-07T20:04:45.370Z,35.90
2019-05-07T20:07:17.144Z,35.90
2019-05-07T20:09:48.379Z,36.00
2019-05-07T20:12:19.071Z,36.10
2019-05-07T20:14:51.766Z,36.10
2019-05-07T20:17:24.697Z,36.10
2019-05-07T20:19:56.141Z,36.10
2019-05-07T20:22:27.770Z,36.10
2019-05-07T20:25:14.756Z,36.10
2019-05-07T20:27:42.141Z,36.30
2019-05-07T20:30:13.880Z,36.70
2019-05-07T20:32:49.180Z,36.10
2019-05-07T20:35:22.574Z,36.20
2019-05-07T20:37:56.014Z,36.30
2019-05-07T20:40:27.627Z,36.40
2019-05-07T20:43:01.927Z,36.60
2019-05-07T20:45:35.535Z,36.70
2019-05-07T20:48:06.870Z,36.60
2019-05-07T20:50:38.525Z,36.70
2019-05-07T20:53:12.140Z,36.70
2019-05-07T20:55:58.758Z,36.80
2019-05-07T20:58:33.310Z,37.00
2019-05-07T21:01:05.758Z,37.00
2019-05-07T21:03:40.232Z,37.00
2019-05-07T21:06:15.972Z,36.90
2019-05-07T21:08:51.720Z,36.60
2019-05-07T21:11:25.134Z,36.40
2019-05-07T21:14:02.928Z,36.40
2019-05-07T21:16:38.548Z,36.40
2019-05-07T21:19:12.910Z,36.40
2019-05-07T21:21:44.997Z,36.20
2019-05-07T21:24:17.566Z,36.10
2019-05-07T21:26:50.027Z,36.10
2019-05-07T21:29:24.308Z,36.60
2019-05-07T21:31:55.847Z,35.70
2019-05-07T21:34:27.614Z,35.60
2019-05-07T21:36:58.857Z,35.40
2019-05-07T21:39:29.908Z,35.30
2019-05-07T21:42:01.336Z,35.20
2019-05-07T21:44:34.936Z,35.10
2019-05-07T21:47:06.254Z,35.00
2019-05-07T21:49:38.760Z,34.90
2019-05-07T21:52:09.927Z,34.70
2019-05-07T21:54:52.469Z,34.50
2019-05-07T21:57:37.725Z,34.50
2019-05-07T22:00:22.066Z,34.50
2019-05-07T22:02:55.130Z,34.50
2019-05-07T22:05:25.959Z,34.30
2019-05-07T22:08:01.518Z,34.30
2019-05-07T22:10:33.059Z,34.20
2019-05-07T22:13:04.864Z,34.20
2019-05-07T22:15:35.704Z,34.00
2019-05-07T22:18:06.891Z,34.00
2019-05-07T22:20:38.038Z,34.00
2019-05-07T22:23:10.481Z,33.90
2019-05-07T22:25:42.219Z,33.80
2019-05-07T22:28:15.275Z,33.80
2019-05-07T22:31:14.041Z,33.90
2019-05-07T22:34:02.161Z,33.80
2019-05-07T22:36:36.927Z,33.70
2019-05-07T22:39:16.372Z,33.70
2019-05-07T22:41:50.209Z,33.70
2019-05-07T22:44:25.836Z,33.80
2019-05-07T22:46:58.233Z,33.70
2019-05-07T22:49:29.243Z,33.70
2019-05-07T22:52:03.326Z,33.70
2019-05-07T22:54:34.578Z,33.50
2019-05-07T22:57:14.267Z,33.50
2019-05-07T22:59:47.930Z,33.50
2019-05-07T23:02:18.329Z,33.50
2019-05-07T23:04:48.986Z,33.40
2019-05-07T23:07:22.141Z,33.20
2019-05-07T23:09:52.501Z,33.20
2019-05-07T23:12:22.901Z,33.30
2019-05-07T23:14:53.768Z,33.40
2019-05-07T23:17:26.545Z,33.40
2019-05-07T23:19:57.236Z,33.50
2019-05-07T23:22:28.218Z,33.50
2019-05-07T23:24:58.916Z,33.60
2019-05-07T23:27:29.603Z,33.70
2019-05-07T23:30:04.785Z,33.70
2019-05-07T23:32:36.078Z,33.70
2019-05-07T23:35:12.700Z,33.80
2019-05-07T23:37:44.250Z,33.80
2019-05-07T23:40:23.049Z,33.80
2019-05-07T23:42:56.931Z,33.80
2019-05-07T23:45:28.600Z,33.90
2019-05-07T23:48:02.851Z,33.90
2019-05-07T23:50:35.370Z,33.90
2019-05-07T23:53:07.849Z,34.00
2019-05-07T23:55:39.305Z,34.00
2019-05-07T23:58:13.821Z,34.00
